sensor_id;sensor_type;location;lat;lon;timestamp;P1;durP1;ratioP1;P2;durP2;ratioP2
1382;SDS011;685;47.196;11.880;2023-11-18T00:02:25;10.03;;;8.70;;
1382;SDS011;685;47.196;11.880;2023-11-18T00:04:53;10.20;;;9.17;;
1382;SDS011;685;47.196;11.880;2023-11-18T00:07:22;11.23;;;9.13;;
1382;SDS011;685;47.196;11.880;2023-11-18T00:09:49;14.13;;;10.27;;
1382;SDS011;685;47.196;11.880;2023-11-18T00:12:16;12.30;;;10.50;;
1382;SDS011;685;47.196;11.880;2023-11-18T00:14:43;12.73;;;9.87;;
1382;SDS011;685;47.196;11.880;2023-11-18T00:17:11;12.20;;;9.80;;
1382;SDS011;685;47.196;11.880;2023-11-18T00:19:38;10.97;;;9.87;;
1382;SDS011;685;47.196;11.880;2023-11-18T00:22:07;10.10;;;8.30;;
1382;SDS011;685;47.196;11.880;2023-11-18T00:24:35;11.07;;;9.97;;
1382;SDS011;685;47.196;11.880;2023-11-18T00:27:03;11.80;;;9.77;;
1382;SDS011;685;47.196;11.880;2023-11-18T00:29:31;10.63;;;9.33;;
1382;SDS011;685;47.196;11.880;2023-11-18T00:31:59;12.20;;;8.83;;
1382;SDS011;685;47.196;11.880;2023-11-18T00:34:26;12.57;;;9.93;;
1382;SDS011;685;47.196;11.880;2023-11-18T00:36:54;11.47;;;10.00;;
1382;SDS011;685;47.196;11.880;2023-11-18T00:39:22;12.10;;;10.60;;
1382;SDS011;685;47.196;11.880;2023-11-18T00:41:51;12.73;;;10.20;;
1382;SDS011;685;47.196;11.880;2023-11-18T00:44:18;12.40;;;10.60;;
1382;SDS011;685;47.196;11.880;2023-11-18T00:46:45;11.33;;;10.20;;
1382;SDS011;685;47.196;11.880;2023-11-18T00:49:13;11.17;;;9.73;;
1382;SDS011;685;47.196;11.880;2023-11-18T00:51:40;12.07;;;10.00;;
1382;SDS011;685;47.196;11.880;2023-11-18T00:54:07;11.03;;;9.93;;
1382;SDS011;685;47.196;11.880;2023-11-18T00:56:35;11.83;;;10.57;;
1382;SDS011;685;47.196;11.880;2023-11-18T00:59:03;11.17;;;9.87;;
1382;SDS011;685;47.196;11.880;2023-11-18T01:01:31;13.17;;;10.93;;
1382;SDS011;685;47.196;11.880;2023-11-18T01:03:58;11.20;;;10.00;;
1382;SDS011;685;47.196;11.880;2023-11-18T01:06:26;10.33;;;9.23;;
1382;SDS011;685;47.196;11.880;2023-11-18T01:08:53;10.20;;;9.07;;
1382;SDS011;685;47.196;11.880;2023-11-18T01:11:20;10.00;;;8.87;;
1382;SDS011;685;47.196;11.880;2023-11-18T01:13:48;10.37;;;8.93;;
1382;SDS011;685;47.196;11.880;2023-11-18T01:16:16;12.33;;;8.27;;
1382;SDS011;685;47.196;11.880;2023-11-18T01:18:44;10.80;;;9.40;;
1382;SDS011;685;47.196;11.880;2023-11-18T01:21:12;12.00;;;9.17;;
1382;SDS011;685;47.196;11.880;2023-11-18T01:23:42;8.97;;;8.07;;
1382;SDS011;685;47.196;11.880;2023-11-18T01:26:10;10.40;;;8.63;;
1382;SDS011;685;47.196;11.880;2023-11-18T01:28:38;9.83;;;8.80;;
1382;SDS011;685;47.196;11.880;2023-11-18T01:31:07;9.40;;;8.50;;
1382;SDS011;685;47.196;11.880;2023-11-18T01:33:37;8.40;;;7.37;;
1382;SDS011;685;47.196;11.880;2023-11-18T01:36:05;9.77;;;8.50;;
1382;SDS011;685;47.196;11.880;2023-11-18T01:38:34;10.60;;;8.23;;
1382;SDS011;685;47.196;11.880;2023-11-18T01:41:02;12.87;;;9.80;;
1382;SDS011;685;47.196;11.880;2023-11-18T01:43:30;10.70;;;8.90;;
1382;SDS011;685;47.196;11.880;2023-11-18T01:45:58;11.40;;;9.70;;
1382;SDS011;685;47.196;11.880;2023-11-18T01:48:26;13.63;;;10.63;;
1382;SDS011;685;47.196;11.880;2023-11-18T01:50:56;13.57;;;10.40;;
1382;SDS011;685;47.196;11.880;2023-11-18T01:53:24;12.10;;;10.80;;
1382;SDS011;685;47.196;11.880;2023-11-18T01:55:52;13.30;;;10.20;;
1382;SDS011;685;47.196;11.880;2023-11-18T01:58:19;12.67;;;10.70;;
1382;SDS011;685;47.196;11.880;2023-11-18T02:00:48;10.87;;;9.07;;
1382;SDS011;685;47.196;11.880;2023-11-18T02:03:17;12.67;;;10.40;;
1382;SDS011;685;47.196;11.880;2023-11-18T02:05:45;12.23;;;10.33;;
1382;SDS011;685;47.196;11.880;2023-11-18T02:08:14;17.90;;;10.97;;
1382;SDS011;685;47.196;11.880;2023-11-18T02:10:45;12.53;;;11.23;;
1382;SDS011;685;47.196;11.880;2023-11-18T02:13:15;13.47;;;11.30;;
1382;SDS011;685;47.196;11.880;2023-11-18T02:15:49;12.50;;;9.60;;
1382;SDS011;685;47.196;11.880;2023-11-18T02:18:17;12.77;;;10.47;;
1382;SDS011;685;47.196;11.880;2023-11-18T02:20:44;14.00;;;11.03;;
1382;SDS011;685;47.196;11.880;2023-11-18T02:23:15;11.17;;;9.80;;
1382;SDS011;685;47.196;11.880;2023-11-18T02:25:45;12.90;;;10.83;;
1382;SDS011;685;47.196;11.880;2023-11-18T02:28:12;10.90;;;9.30;;
1382;SDS011;685;47.196;11.880;2023-11-18T02:30:40;14.20;;;11.47;;
1382;SDS011;685;47.196;11.880;2023-11-18T02:33:10;13.00;;;10.97;;
1382;SDS011;685;47.196;11.880;2023-11-18T02:35:41;12.23;;;10.90;;
1382;SDS011;685;47.196;11.880;2023-11-18T02:38:13;13.90;;;10.17;;
1382;SDS011;685;47.196;11.880;2023-11-18T02:40:41;11.53;;;9.40;;
1382;SDS011;685;47.196;11.880;2023-11-18T02:43:11;11.63;;;10.30;;
1382;SDS011;685;47.196;11.880;2023-11-18T02:45:39;11.90;;;9.50;;
1382;SDS011;685;47.196;11.880;2023-11-18T02:48:06;12.67;;;11.00;;
1382;SDS011;685;47.196;11.880;2023-11-18T02:50:34;14.33;;;10.67;;
1382;SDS011;685;47.196;11.880;2023-11-18T02:53:01;12.47;;;10.20;;
1382;SDS011;685;47.196;11.880;2023-11-18T02:55:28;13.80;;;10.33;;
1382;SDS011;685;47.196;11.880;2023-11-18T02:57:56;14.60;;;11.53;;
1382;SDS011;685;47.196;11.880;2023-11-18T03:00:24;13.57;;;11.43;;
1382;SDS011;685;47.196;11.880;2023-11-18T03:02:54;17.83;;;12.83;;
1382;SDS011;685;47.196;11.880;2023-11-18T03:05:21;16.60;;;12.87;;
1382;SDS011;685;47.196;11.880;2023-11-18T03:07:51;18.00;;;12.60;;
1382;SDS011;685;47.196;11.880;2023-11-18T03:10:22;18.40;;;12.57;;
1382;SDS011;685;47.196;11.880;2023-11-18T03:12:49;14.83;;;11.30;;
1382;SDS011;685;47.196;11.880;2023-11-18T03:15:17;14.00;;;11.67;;
1382;SDS011;685;47.196;11.880;2023-11-18T03:17:46;15.40;;;11.60;;
1382;SDS011;685;47.196;11.880;2023-11-18T03:20:14;14.27;;;9.63;;
1382;SDS011;685;47.196;11.880;2023-11-18T03:22:42;13.47;;;11.10;;
1382;SDS011;685;47.196;11.880;2023-11-18T03:25:10;15.07;;;11.50;;
1382;SDS011;685;47.196;11.880;2023-11-18T03:27:37;15.37;;;11.03;;
1382;SDS011;685;47.196;11.880;2023-11-18T03:30:05;13.00;;;11.10;;
1382;SDS011;685;47.196;11.880;2023-11-18T03:32:33;13.50;;;10.93;;
1382;SDS011;685;47.196;11.880;2023-11-18T03:35:02;13.83;;;10.77;;
1382;SDS011;685;47.196;11.880;2023-11-18T03:37:29;10.40;;;9.20;;
1382;SDS011;685;47.196;11.880;2023-11-18T03:39:57;12.37;;;9.57;;
1382;SDS011;685;47.196;11.880;2023-11-18T03:42:24;13.67;;;10.77;;
1382;SDS011;685;47.196;11.880;2023-11-18T03:44:54;14.20;;;11.20;;
1382;SDS011;685;47.196;11.880;2023-11-18T03:47:21;13.33;;;11.07;;
1382;SDS011;685;47.196;11.880;2023-11-18T03:49:49;12.93;;;10.43;;
1382;SDS011;685;47.196;11.880;2023-11-18T03:52:18;12.87;;;10.40;;
1382;SDS011;685;47.196;11.880;2023-11-18T03:54:45;12.73;;;11.40;;
1382;SDS011;685;47.196;11.880;2023-11-18T03:57:12;11.17;;;10.03;;
1382;SDS011;685;47.196;11.880;2023-11-18T03:59:39;13.90;;;10.23;;
1382;SDS011;685;47.196;11.880;2023-11-18T04:02:07;12.30;;;10.10;;
1382;SDS011;685;47.196;11.880;2023-11-18T04:04:36;13.10;;;10.30;;
1382;SDS011;685;47.196;11.880;2023-11-18T04:07:03;11.40;;;9.37;;
1382;SDS011;685;47.196;11.880;2023-11-18T04:09:33;11.27;;;10.07;;
1382;SDS011;685;47.196;11.880;2023-11-18T04:12:00;14.67;;;11.07;;
1382;SDS011;685;47.196;11.880;2023-11-18T04:14:28;14.00;;;10.20;;
1382;SDS011;685;47.196;11.880;2023-11-18T04:16:55;14.50;;;11.50;;
1382;SDS011;685;47.196;11.880;2023-11-18T04:19:22;13.10;;;11.30;;
1382;SDS011;685;47.196;11.880;2023-11-18T04:21:51;12.00;;;10.43;;
1382;SDS011;685;47.196;11.880;2023-11-18T04:24:18;13.50;;;10.63;;
1382;SDS011;685;47.196;11.880;2023-11-18T04:26:46;13.50;;;12.10;;
1382;SDS011;685;47.196;11.880;2023-11-18T04:29:14;13.50;;;10.30;;
1382;SDS011;685;47.196;11.880;2023-11-18T04:31:41;13.50;;;10.70;;
1382;SDS011;685;47.196;11.880;2023-11-18T04:34:08;13.03;;;10.77;;
1382;SDS011;685;47.196;11.880;2023-11-18T04:36:36;12.93;;;10.60;;
1382;SDS011;685;47.196;11.880;2023-11-18T04:39:03;13.50;;;12.07;;
1382;SDS011;685;47.196;11.880;2023-11-18T04:41:30;11.63;;;10.10;;
1382;SDS011;685;47.196;11.880;2023-11-18T04:43:59;14.93;;;11.20;;
1382;SDS011;685;47.196;11.880;2023-11-18T04:46:26;14.80;;;11.50;;
1382;SDS011;685;47.196;11.880;2023-11-18T04:48:53;14.10;;;11.53;;
1382;SDS011;685;47.196;11.880;2023-11-18T04:51:21;13.40;;;10.70;;
1382;SDS011;685;47.196;11.880;2023-11-18T04:53:48;11.30;;;9.63;;
1382;SDS011;685;47.196;11.880;2023-11-18T04:56:15;13.37;;;10.93;;
1382;SDS011;685;47.196;11.880;2023-11-18T04:58:43;14.20;;;11.87;;
1382;SDS011;685;47.196;11.880;2023-11-18T05:01:13;14.37;;;11.50;;
1382;SDS011;685;47.196;11.880;2023-11-18T05:03:40;13.90;;;11.20;;
1382;SDS011;685;47.196;11.880;2023-11-18T05:06:07;13.93;;;11.23;;
1382;SDS011;685;47.196;11.880;2023-11-18T05:08:35;13.33;;;10.80;;
1382;SDS011;685;47.196;11.880;2023-11-18T05:11:02;12.97;;;10.70;;
1382;SDS011;685;47.196;11.880;2023-11-18T05:13:30;14.53;;;10.60;;
1382;SDS011;685;47.196;11.880;2023-11-18T05:15:59;31.90;;;21.80;;
1382;SDS011;685;47.196;11.880;2023-11-18T05:18:27;22.93;;;15.33;;
1382;SDS011;685;47.196;11.880;2023-11-18T05:20:58;22.80;;;16.40;;
1382;SDS011;685;47.196;11.880;2023-11-18T05:23:25;17.27;;;12.47;;
1382;SDS011;685;47.196;11.880;2023-11-18T05:25:54;14.40;;;11.77;;
1382;SDS011;685;47.196;11.880;2023-11-18T05:28:23;13.13;;;10.73;;
1382;SDS011;685;47.196;11.880;2023-11-18T05:30:50;13.90;;;10.30;;
1382;SDS011;685;47.196;11.880;2023-11-18T05:33:18;12.70;;;9.73;;
1382;SDS011;685;47.196;11.880;2023-11-18T05:35:47;11.40;;;8.50;;
1382;SDS011;685;47.196;11.880;2023-11-18T05:38:15;11.83;;;9.03;;
1382;SDS011;685;47.196;11.880;2023-11-18T05:40:44;9.67;;;8.50;;
1382;SDS011;685;47.196;11.880;2023-11-18T05:43:20;11.40;;;9.20;;
1382;SDS011;685;47.196;11.880;2023-11-18T05:45:49;11.70;;;8.97;;
1382;SDS011;685;47.196;11.880;2023-11-18T05:48:39;10.60;;;8.73;;
1382;SDS011;685;47.196;11.880;2023-11-18T05:51:08;10.30;;;8.47;;
1382;SDS011;685;47.196;11.880;2023-11-18T05:53:39;11.17;;;8.47;;
1382;SDS011;685;47.196;11.880;2023-11-18T05:56:09;8.93;;;7.90;;
1382;SDS011;685;47.196;11.880;2023-11-18T05:58:36;10.37;;;7.37;;
1382;SDS011;685;47.196;11.880;2023-11-18T06:01:04;8.60;;;7.17;;
1382;SDS011;685;47.196;11.880;2023-11-18T06:03:33;9.33;;;8.23;;
1382;SDS011;685;47.196;11.880;2023-11-18T06:06:03;10.70;;;8.77;;
1382;SDS011;685;47.196;11.880;2023-11-18T06:08:33;12.07;;;9.80;;
1382;SDS011;685;47.196;11.880;2023-11-18T06:11:00;13.40;;;11.43;;
1382;SDS011;685;47.196;11.880;2023-11-18T06:13:38;13.90;;;12.40;;
1382;SDS011;685;47.196;11.880;2023-11-18T06:16:07;13.40;;;10.40;;
1382;SDS011;685;47.196;11.880;2023-11-18T06:18:39;15.33;;;10.80;;
1382;SDS011;685;47.196;11.880;2023-11-18T06:21:06;12.17;;;10.87;;
1382;SDS011;685;47.196;11.880;2023-11-18T06:23:35;15.37;;;13.63;;
1382;SDS011;685;47.196;11.880;2023-11-18T06:26:02;14.77;;;11.87;;
1382;SDS011;685;47.196;11.880;2023-11-18T06:28:30;9.93;;;8.70;;
1382;SDS011;685;47.196;11.880;2023-11-18T06:30:57;13.23;;;9.20;;
1382;SDS011;685;47.196;11.880;2023-11-18T06:33:24;15.13;;;10.93;;
1382;SDS011;685;47.196;11.880;2023-11-18T06:35:52;12.60;;;11.30;;
1382;SDS011;685;47.196;11.880;2023-11-18T06:38:21;13.00;;;10.40;;
1382;SDS011;685;47.196;11.880;2023-11-18T06:40:51;12.10;;;10.13;;
1382;SDS011;685;47.196;11.880;2023-11-18T06:43:18;13.83;;;12.37;;
1382;SDS011;685;47.196;11.880;2023-11-18T06:45:46;14.03;;;12.10;;
1382;SDS011;685;47.196;11.880;2023-11-18T06:48:14;13.13;;;11.50;;
1382;SDS011;685;47.196;11.880;2023-11-18T06:50:45;13.30;;;10.77;;
1382;SDS011;685;47.196;11.880;2023-11-18T06:53:12;13.20;;;11.13;;
1382;SDS011;685;47.196;11.880;2023-11-18T06:55:40;14.20;;;12.00;;
1382;SDS011;685;47.196;11.880;2023-11-18T06:58:09;13.13;;;10.93;;
1382;SDS011;685;47.196;11.880;2023-11-18T07:00:38;13.33;;;10.10;;
1382;SDS011;685;47.196;11.880;2023-11-18T07:03:05;13.17;;;11.47;;
1382;SDS011;685;47.196;11.880;2023-11-18T07:05:32;16.40;;;10.63;;
1382;SDS011;685;47.196;11.880;2023-11-18T07:08:00;13.47;;;12.00;;
1382;SDS011;685;47.196;11.880;2023-11-18T07:10:28;15.40;;;11.73;;
1382;SDS011;685;47.196;11.880;2023-11-18T07:12:55;17.20;;;12.00;;
1382;SDS011;685;47.196;11.880;2023-11-18T07:15:26;14.43;;;12.47;;
1382;SDS011;685;47.196;11.880;2023-11-18T07:17:53;17.43;;;11.73;;
1382;SDS011;685;47.196;11.880;2023-11-18T07:20:20;19.10;;;13.57;;
1382;SDS011;685;47.196;11.880;2023-11-18T07:22:47;15.90;;;13.70;;
1382;SDS011;685;47.196;11.880;2023-11-18T07:25:15;19.00;;;14.43;;
1382;SDS011;685;47.196;11.880;2023-11-18T07:27:42;17.90;;;13.83;;
1382;SDS011;685;47.196;11.880;2023-11-18T07:30:10;15.50;;;13.43;;
1382;SDS011;685;47.196;11.880;2023-11-18T07:32:40;14.03;;;11.80;;
1382;SDS011;685;47.196;11.880;2023-11-18T07:35:08;16.30;;;12.77;;
1382;SDS011;685;47.196;11.880;2023-11-18T07:37:37;18.57;;;12.80;;
1382;SDS011;685;47.196;11.880;2023-11-18T07:40:04;19.03;;;14.90;;
1382;SDS011;685;47.196;11.880;2023-11-18T07:42:32;22.10;;;17.30;;
1382;SDS011;685;47.196;11.880;2023-11-18T07:45:00;22.77;;;17.43;;
1382;SDS011;685;47.196;11.880;2023-11-18T07:47:29;20.67;;;16.57;;
1382;SDS011;685;47.196;11.880;2023-11-18T07:49:58;25.87;;;18.83;;
1382;SDS011;685;47.196;11.880;2023-11-18T07:52:29;21.87;;;17.10;;
1382;SDS011;685;47.196;11.880;2023-11-18T07:54:56;19.67;;;14.87;;
1382;SDS011;685;47.196;11.880;2023-11-18T07:57:23;17.10;;;14.87;;
1382;SDS011;685;47.196;11.880;2023-11-18T07:59:52;21.87;;;15.80;;
1382;SDS011;685;47.196;11.880;2023-11-18T08:02:20;20.80;;;15.07;;
1382;SDS011;685;47.196;11.880;2023-11-18T08:04:48;19.43;;;15.80;;
1382;SDS011;685;47.196;11.880;2023-11-18T08:07:16;18.83;;;14.97;;
1382;SDS011;685;47.196;11.880;2023-11-18T08:09:44;18.30;;;13.90;;
1382;SDS011;685;47.196;11.880;2023-11-18T08:12:11;17.33;;;14.93;;
1382;SDS011;685;47.196;11.880;2023-11-18T08:14:38;17.87;;;14.97;;
1382;SDS011;685;47.196;11.880;2023-11-18T08:17:05;19.87;;;15.00;;
1382;SDS011;685;47.196;11.880;2023-11-18T08:19:33;17.03;;;14.87;;
1382;SDS011;685;47.196;11.880;2023-11-18T08:22:00;19.53;;;15.53;;
1382;SDS011;685;47.196;11.880;2023-11-18T08:24:30;18.73;;;14.00;;
1382;SDS011;685;47.196;11.880;2023-11-18T08:26:58;23.50;;;15.93;;
1382;SDS011;685;47.196;11.880;2023-11-18T08:29:28;22.00;;;15.33;;
1382;SDS011;685;47.196;11.880;2023-11-18T08:31:57;17.37;;;14.13;;
1382;SDS011;685;47.196;11.880;2023-11-18T08:34:24;23.37;;;14.70;;
1382;SDS011;685;47.196;11.880;2023-11-18T08:36:52;16.30;;;13.87;;
1382;SDS011;685;47.196;11.880;2023-11-18T08:39:19;19.53;;;13.63;;
1382;SDS011;685;47.196;11.880;2023-11-18T08:41:52;18.23;;;15.77;;
1382;SDS011;685;47.196;11.880;2023-11-18T08:44:19;17.70;;;15.07;;
1382;SDS011;685;47.196;11.880;2023-11-18T08:46:46;17.03;;;13.50;;
1382;SDS011;685;47.196;11.880;2023-11-18T08:49:13;17.63;;;14.57;;
1382;SDS011;685;47.196;11.880;2023-11-18T08:51:46;20.30;;;15.27;;
1382;SDS011;685;47.196;11.880;2023-11-18T08:54:15;17.47;;;14.50;;
1382;SDS011;685;47.196;11.880;2023-11-18T08:56:51;16.40;;;14.40;;
1382;SDS011;685;47.196;11.880;2023-11-18T08:59:19;15.80;;;13.50;;
1382;SDS011;685;47.196;11.880;2023-11-18T09:01:50;31.97;;;22.80;;
1382;SDS011;685;47.196;11.880;2023-11-18T09:04:21;19.30;;;15.93;;
1382;SDS011;685;47.196;11.880;2023-11-18T09:06:48;17.03;;;13.37;;
1382;SDS011;685;47.196;11.880;2023-11-18T09:09:17;16.13;;;12.50;;
1382;SDS011;685;47.196;11.880;2023-11-18T09:11:52;9.67;;;8.50;;
1382;SDS011;685;47.196;11.880;2023-11-18T09:14:21;12.10;;;8.33;;
1382;SDS011;685;47.196;11.880;2023-11-18T09:16:49;11.17;;;9.97;;
1382;SDS011;685;47.196;11.880;2023-11-18T09:19:17;10.40;;;9.00;;
1382;SDS011;685;47.196;11.880;2023-11-18T09:21:46;14.93;;;12.13;;
1382;SDS011;685;47.196;11.880;2023-11-18T09:24:13;13.97;;;11.30;;
1382;SDS011;685;47.196;11.880;2023-11-18T09:26:44;13.57;;;11.20;;
1382;SDS011;685;47.196;11.880;2023-11-18T09:29:17;21.07;;;15.40;;
1382;SDS011;685;47.196;11.880;2023-11-18T09:31:49;15.17;;;11.60;;
1382;SDS011;685;47.196;11.880;2023-11-18T09:34:17;13.93;;;11.50;;
1382;SDS011;685;47.196;11.880;2023-11-18T09:36:52;12.67;;;9.03;;
1382;SDS011;685;47.196;11.880;2023-11-18T09:39:19;12.53;;;9.00;;
1382;SDS011;685;47.196;11.880;2023-11-18T09:42:03;9.83;;;7.73;;
1382;SDS011;685;47.196;11.880;2023-11-18T09:44:34;10.37;;;8.77;;
1382;SDS011;685;47.196;11.880;2023-11-18T09:47:03;10.93;;;9.83;;
1382;SDS011;685;47.196;11.880;2023-11-18T09:49:35;13.00;;;9.90;;
1382;SDS011;685;47.196;11.880;2023-11-18T09:52:05;10.20;;;8.63;;
1382;SDS011;685;47.196;11.880;2023-11-18T09:54:34;10.63;;;8.87;;
1382;SDS011;685;47.196;11.880;2023-11-18T09:57:04;10.43;;;9.33;;
1382;SDS011;685;47.196;11.880;2023-11-18T09:59:39;11.90;;;10.37;;
1382;SDS011;685;47.196;11.880;2023-11-18T10:02:10;16.70;;;9.83;;
1382;SDS011;685;47.196;11.880;2023-11-18T10:04:37;9.90;;;8.90;;
1382;SDS011;685;47.196;11.880;2023-11-18T10:07:05;11.07;;;9.23;;
1382;SDS011;685;47.196;11.880;2023-11-18T10:09:35;9.10;;;7.50;;
1382;SDS011;685;47.196;11.880;2023-11-18T10:12:04;8.80;;;7.30;;
1382;SDS011;685;47.196;11.880;2023-11-18T10:14:32;8.40;;;6.03;;
1382;SDS011;685;47.196;11.880;2023-11-18T10:17:04;6.20;;;5.60;;
1382;SDS011;685;47.196;11.880;2023-11-18T10:19:52;6.93;;;5.60;;
1382;SDS011;685;47.196;11.880;2023-11-18T10:22:24;7.80;;;6.40;;
1382;SDS011;685;47.196;11.880;2023-11-18T10:24:52;8.77;;;7.03;;
1382;SDS011;685;47.196;11.880;2023-11-18T10:27:21;8.00;;;6.90;;
1382;SDS011;685;47.196;11.880;2023-11-18T10:29:50;7.73;;;6.83;;
1382;SDS011;685;47.196;11.880;2023-11-18T10:32:19;9.63;;;7.20;;
1382;SDS011;685;47.196;11.880;2023-11-18T10:34:47;8.83;;;6.97;;
1382;SDS011;685;47.196;11.880;2023-11-18T10:37:16;8.30;;;7.40;;
1382;SDS011;685;47.196;11.880;2023-11-18T10:39:46;8.43;;;6.50;;
1382;SDS011;685;47.196;11.880;2023-11-18T10:42:16;8.30;;;6.90;;
1382;SDS011;685;47.196;11.880;2023-11-18T10:47:33;7.90;;;6.40;;
1382;SDS011;685;47.196;11.880;2023-11-18T10:50:04;7.70;;;6.47;;
1382;SDS011;685;47.196;11.880;2023-11-18T10:52:34;10.90;;;6.77;;
1382;SDS011;685;47.196;11.880;2023-11-18T10:55:02;5.27;;;4.77;;
1382;SDS011;685;47.196;11.880;2023-11-18T10:57:36;5.60;;;4.67;;
1382;SDS011;685;47.196;11.880;2023-11-18T11:00:04;6.03;;;4.80;;
1382;SDS011;685;47.196;11.880;2023-11-18T11:02:39;6.10;;;4.93;;
1382;SDS011;685;47.196;11.880;2023-11-18T11:05:07;6.30;;;5.00;;
1382;SDS011;685;47.196;11.880;2023-11-18T11:07:40;6.37;;;5.43;;
1382;SDS011;685;47.196;11.880;2023-11-18T11:10:09;5.40;;;4.43;;
1382;SDS011;685;47.196;11.880;2023-11-18T11:12:41;6.70;;;5.00;;
1382;SDS011;685;47.196;11.880;2023-11-18T11:15:17;5.60;;;4.20;;
1382;SDS011;685;47.196;11.880;2023-11-18T11:17:48;4.93;;;4.33;;
1382;SDS011;685;47.196;11.880;2023-11-18T11:20:21;4.73;;;4.07;;
1382;SDS011;685;47.196;11.880;2023-11-18T11:23:01;6.70;;;4.33;;
1382;SDS011;685;47.196;11.880;2023-11-18T11:25:35;5.33;;;4.83;;
1382;SDS011;685;47.196;11.880;2023-11-18T11:28:06;7.10;;;5.80;;
1382;SDS011;685;47.196;11.880;2023-11-18T11:30:37;6.27;;;5.67;;
1382;SDS011;685;47.196;11.880;2023-11-18T11:33:13;5.47;;;4.67;;
1382;SDS011;685;47.196;11.880;2023-11-18T11:35:43;6.70;;;5.07;;
1382;SDS011;685;47.196;11.880;2023-11-18T11:38:13;5.57;;;5.00;;
1382;SDS011;685;47.196;11.880;2023-11-18T11:40:42;6.30;;;5.50;;
1382;SDS011;685;47.196;11.880;2023-11-18T11:43:09;7.10;;;5.60;;
1382;SDS011;685;47.196;11.880;2023-11-18T11:45:41;6.00;;;5.20;;
1382;SDS011;685;47.196;11.880;2023-11-18T11:48:13;6.47;;;4.90;;
1382;SDS011;685;47.196;11.880;2023-11-18T11:50:44;5.80;;;5.10;;
1382;SDS011;685;47.196;11.880;2023-11-18T11:53:16;6.03;;;4.63;;
1382;SDS011;685;47.196;11.880;2023-11-18T11:55:49;6.17;;;5.57;;
1382;SDS011;685;47.196;11.880;2023-11-18T11:58:25;6.57;;;5.17;;
1382;SDS011;685;47.196;11.880;2023-11-18T12:00:53;5.60;;;3.83;;
1382;SDS011;685;47.196;11.880;2023-11-18T12:03:22;5.73;;;4.43;;
1382;SDS011;685;47.196;11.880;2023-11-18T12:05:49;5.00;;;4.23;;
1382;SDS011;685;47.196;11.880;2023-11-18T12:08:30;6.03;;;4.50;;
1382;SDS011;685;47.196;11.880;2023-11-18T12:10:57;5.50;;;4.57;;
1382;SDS011;685;47.196;11.880;2023-11-18T12:13:24;6.90;;;5.30;;
1382;SDS011;685;47.196;11.880;2023-11-18T12:15:52;4.67;;;3.87;;
1382;SDS011;685;47.196;11.880;2023-11-18T12:18:24;5.50;;;4.20;;
1382;SDS011;685;47.196;11.880;2023-11-18T12:20:52;4.70;;;3.83;;
1382;SDS011;685;47.196;11.880;2023-11-18T12:23:27;6.47;;;4.73;;
1382;SDS011;685;47.196;11.880;2023-11-18T12:25:53;6.00;;;4.47;;
1382;SDS011;685;47.196;11.880;2023-11-18T12:28:24;5.53;;;4.37;;
1382;SDS011;685;47.196;11.880;2023-11-18T12:30:53;4.47;;;4.07;;
1382;SDS011;685;47.196;11.880;2023-11-18T12:42:03;7.07;;;4.67;;
1382;SDS011;685;47.196;11.880;2023-11-18T12:44:37;5.27;;;4.57;;
1382;SDS011;685;47.196;11.880;2023-11-18T12:47:06;5.93;;;5.30;;
1382;SDS011;685;47.196;11.880;2023-11-18T12:49:43;7.13;;;5.20;;
1382;SDS011;685;47.196;11.880;2023-11-18T12:52:15;8.80;;;5.17;;
1382;SDS011;685;47.196;11.880;2023-11-18T12:54:44;6.47;;;5.00;;
1382;SDS011;685;47.196;11.880;2023-11-18T12:57:18;5.03;;;4.50;;
1382;SDS011;685;47.196;11.880;2023-11-18T12:59:48;6.63;;;5.30;;
1382;SDS011;685;47.196;11.880;2023-11-18T13:02:16;6.80;;;5.67;;
1382;SDS011;685;47.196;11.880;2023-11-18T13:04:44;5.57;;;5.00;;
1382;SDS011;685;47.196;11.880;2023-11-18T13:07:14;5.50;;;4.83;;
1382;SDS011;685;47.196;11.880;2023-11-18T13:09:42;6.03;;;5.20;;
1382;SDS011;685;47.196;11.880;2023-11-18T13:12:11;5.63;;;4.40;;
1382;SDS011;685;47.196;11.880;2023-11-18T13:14:41;5.00;;;4.43;;
1382;SDS011;685;47.196;11.880;2023-11-18T13:17:11;6.47;;;5.30;;
1382;SDS011;685;47.196;11.880;2023-11-18T13:19:38;6.47;;;4.77;;
1382;SDS011;685;47.196;11.880;2023-11-18T13:22:07;6.27;;;5.10;;
1382;SDS011;685;47.196;11.880;2023-11-18T13:24:34;5.30;;;4.30;;
1382;SDS011;685;47.196;11.880;2023-11-18T13:27:04;5.03;;;3.83;;
1382;SDS011;685;47.196;11.880;2023-11-18T13:29:32;5.70;;;4.80;;
1382;SDS011;685;47.196;11.880;2023-11-18T13:32:01;4.77;;;4.13;;
1382;SDS011;685;47.196;11.880;2023-11-18T13:34:29;5.43;;;4.60;;
1382;SDS011;685;47.196;11.880;2023-11-18T13:36:58;6.00;;;4.00;;
1382;SDS011;685;47.196;11.880;2023-11-18T13:39:26;7.63;;;6.07;;
1382;SDS011;685;47.196;11.880;2023-11-18T13:41:53;18.23;;;13.43;;
1382;SDS011;685;47.196;11.880;2023-11-18T13:44:33;9.07;;;7.23;;
1382;SDS011;685;47.196;11.880;2023-11-18T13:47:02;6.27;;;5.30;;
1382;SDS011;685;47.196;11.880;2023-11-18T13:49:31;4.73;;;4.23;;
1382;SDS011;685;47.196;11.880;2023-11-18T13:51:59;5.43;;;4.77;;
1382;SDS011;685;47.196;11.880;2023-11-18T13:54:27;6.10;;;4.53;;
1382;SDS011;685;47.196;11.880;2023-11-18T13:56:55;5.10;;;4.17;;
1382;SDS011;685;47.196;11.880;2023-11-18T13:59:24;4.60;;;4.03;;
1382;SDS011;685;47.196;11.880;2023-11-18T14:01:52;4.70;;;3.30;;
1382;SDS011;685;47.196;11.880;2023-11-18T14:04:21;4.57;;;2.70;;
1382;SDS011;685;47.196;11.880;2023-11-18T14:06:50;3.80;;;3.10;;
1382;SDS011;685;47.196;11.880;2023-11-18T14:09:18;5.00;;;3.30;;
1382;SDS011;685;47.196;11.880;2023-11-18T14:11:47;5.33;;;3.43;;
1382;SDS011;685;47.196;11.880;2023-11-18T14:14:14;4.03;;;3.50;;
1382;SDS011;685;47.196;11.880;2023-11-18T14:16:42;4.50;;;3.80;;
1382;SDS011;685;47.196;11.880;2023-11-18T14:19:10;3.90;;;2.93;;
1382;SDS011;685;47.196;11.880;2023-11-18T14:21:39;4.03;;;2.97;;
1382;SDS011;685;47.196;11.880;2023-11-18T14:24:07;4.83;;;3.00;;
1382;SDS011;685;47.196;11.880;2023-11-18T14:26:35;4.77;;;3.10;;
1382;SDS011;685;47.196;11.880;2023-11-18T14:29:05;4.13;;;2.87;;
1382;SDS011;685;47.196;11.880;2023-11-18T14:31:32;2.80;;;2.07;;
1382;SDS011;685;47.196;11.880;2023-11-18T14:34:00;2.80;;;2.23;;
1382;SDS011;685;47.196;11.880;2023-11-18T14:36:27;5.30;;;2.30;;
1382;SDS011;685;47.196;11.880;2023-11-18T14:38:56;3.10;;;2.23;;
1382;SDS011;685;47.196;11.880;2023-11-18T14:41:24;4.00;;;2.50;;
1382;SDS011;685;47.196;11.880;2023-11-18T14:43:52;3.70;;;2.90;;
1382;SDS011;685;47.196;11.880;2023-11-18T14:46:19;4.53;;;2.67;;
1382;SDS011;685;47.196;11.880;2023-11-18T14:48:46;3.10;;;2.47;;
1382;SDS011;685;47.196;11.880;2023-11-18T14:51:14;2.70;;;2.20;;
1382;SDS011;685;47.196;11.880;2023-11-18T14:53:42;4.43;;;3.00;;
1382;SDS011;685;47.196;11.880;2023-11-18T14:56:10;3.23;;;2.50;;
1382;SDS011;685;47.196;11.880;2023-11-18T14:58:38;3.90;;;2.77;;
1382;SDS011;685;47.196;11.880;2023-11-18T15:01:05;3.10;;;2.67;;
1382;SDS011;685;47.196;11.880;2023-11-18T15:03:33;4.17;;;2.60;;
1382;SDS011;685;47.196;11.880;2023-11-18T15:06:01;3.23;;;2.27;;
1382;SDS011;685;47.196;11.880;2023-11-18T15:08:28;3.87;;;2.20;;
1382;SDS011;685;47.196;11.880;2023-11-18T15:10:56;3.57;;;2.30;;
1382;SDS011;685;47.196;11.880;2023-11-18T15:13:25;3.83;;;2.33;;
1382;SDS011;685;47.196;11.880;2023-11-18T15:15:52;4.40;;;2.73;;
1382;SDS011;685;47.196;11.880;2023-11-18T15:18:20;3.97;;;3.40;;
1382;SDS011;685;47.196;11.880;2023-11-18T15:20:48;4.53;;;3.70;;
1382;SDS011;685;47.196;11.880;2023-11-18T15:23:17;5.60;;;4.70;;